sensor_id;sensor_type;location;lat;lon;timestamp;temperature;humidity
13521;DHT22;6832;51.186;3.236;2023-04-25T00:02:25;16.80;58.30
13521;DHT22;6832;51.186;3.236;2023-04-25T00:04:53;16.80;58.30
13521;DHT22;6832;51.186;3.236;2023-04-25T00:07:25;16.80;58.30
13521;DHT22;6832;51.186;3.236;2023-04-25T00:09:58;16.80;58.30
13521;DHT22;6832;51.186;3.236;2023-04-25T00:12:25;16.80;58.30
13521;DHT22;6832;51.186;3.236;2023-04-25T00:14:55;16.80;58.30
13521;DHT22;6832;51.186;3.236;2023-04-25T00:17:27;16.80;58.30
13521;DHT22;6832;51.186;3.236;2023-04-25T00:19:54;16.80;58.30
13521;DHT22;6832;51.186;3.236;2023-04-25T00:22:21;16.80;58.30
13521;DHT22;6832;51.186;3.236;2023-04-25T00:24:48;16.80;58.30
13521;DHT22;6832;51.186;3.236;2023-04-25T00:27:15;16.80;58.30
13521;DHT22;6832;51.186;3.236;2023-04-25T00:29:42;16.80;58.30
13521;DHT22;6832;51.186;3.236;2023-04-25T00:32:09;16.70;58.20
13521;DHT22;6832;51.186;3.236;2023-04-25T00:34:37;16.70;58.20
13521;DHT22;6832;51.186;3.236;2023-04-25T00:37:05;16.70;58.20
13521;DHT22;6832;51.186;3.236;2023-04-25T00:39:32;16.70;58.20
13521;DHT22;6832;51.186;3.236;2023-04-25T00:42:00;16.70;58.80
13521;DHT22;6832;51.186;3.236;2023-04-25T00:44:29;16.70;58.20
13521;DHT22;6832;51.186;3.236;2023-04-25T00:46:57;16.70;58.20
13521;DHT22;6832;51.186;3.236;2023-04-25T00:49:24;16.70;58.20
13521;DHT22;6832;51.186;3.236;2023-04-25T00:51:53;16.70;58.20
13521;DHT22;6832;51.186;3.236;2023-04-25T00:54:20;16.70;58.20
13521;DHT22;6832;51.186;3.236;2023-04-25T00:56:48;16.60;58.20
13521;DHT22;6832;51.186;3.236;2023-04-25T00:59:15;16.60;58.10
13521;DHT22;6832;51.186;3.236;2023-04-25T01:01:43;16.60;58.20
13521;DHT22;6832;51.186;3.236;2023-04-25T01:04:10;16.60;58.10
13521;DHT22;6832;51.186;3.236;2023-04-25T01:06:37;16.60;58.10
13521;DHT22;6832;51.186;3.236;2023-04-25T01:09:06;16.60;58.10
13521;DHT22;6832;51.186;3.236;2023-04-25T01:11:33;16.60;58.10
13521;DHT22;6832;51.186;3.236;2023-04-25T01:14:01;16.50;58.00
13521;DHT22;6832;51.186;3.236;2023-04-25T01:16:28;16.50;58.00
13521;DHT22;6832;51.186;3.236;2023-04-25T01:18:55;16.50;58.00
13521;DHT22;6832;51.186;3.236;2023-04-25T01:21:24;16.50;58.00
13521;DHT22;6832;51.186;3.236;2023-04-25T01:23:54;16.50;58.00
13521;DHT22;6832;51.186;3.236;2023-04-25T01:26:21;16.50;58.00
13521;DHT22;6832;51.186;3.236;2023-04-25T01:28:49;16.50;58.00
13521;DHT22;6832;51.186;3.236;2023-04-25T01:31:17;16.50;58.00
13521;DHT22;6832;51.186;3.236;2023-04-25T01:33:45;16.40;58.00
13521;DHT22;6832;51.186;3.236;2023-04-25T01:36:13;16.40;58.00
13521;DHT22;6832;51.186;3.236;2023-04-25T01:38:43;16.40;58.00
13521;DHT22;6832;51.186;3.236;2023-04-25T01:41:12;16.40;58.00
13521;DHT22;6832;51.186;3.236;2023-04-25T01:43:40;16.40;58.00
13521;DHT22;6832;51.186;3.236;2023-04-25T01:46:07;16.40;58.00
13521;DHT22;6832;51.186;3.236;2023-04-25T01:48:35;16.40;58.00
13521;DHT22;6832;51.186;3.236;2023-04-25T01:51:05;16.30;57.90
13521;DHT22;6832;51.186;3.236;2023-04-25T01:53:32;16.30;57.90
13521;DHT22;6832;51.186;3.236;2023-04-25T01:56:00;16.40;58.00
13521;DHT22;6832;51.186;3.236;2023-04-25T01:58:27;16.30;57.90
13521;DHT22;6832;51.186;3.236;2023-04-25T02:00:54;16.30;57.90
13521;DHT22;6832;51.186;3.236;2023-04-25T02:03:22;16.30;58.00
13521;DHT22;6832;51.186;3.236;2023-04-25T02:05:49;16.30;57.90
13521;DHT22;6832;51.186;3.236;2023-04-25T02:08:17;16.30;57.90
13521;DHT22;6832;51.186;3.236;2023-04-25T02:10:44;16.30;58.00
13521;DHT22;6832;51.186;3.236;2023-04-25T02:13:12;16.20;57.90
13521;DHT22;6832;51.186;3.236;2023-04-25T02:15:40;16.30;58.00
13521;DHT22;6832;51.186;3.236;2023-04-25T02:18:07;16.20;57.90
13521;DHT22;6832;51.186;3.236;2023-04-25T02:20:36;16.20;57.90
13521;DHT22;6832;51.186;3.236;2023-04-25T02:23:04;16.20;57.90
13521;DHT22;6832;51.186;3.236;2023-04-25T02:25:31;16.20;57.90
13521;DHT22;6832;51.186;3.236;2023-04-25T02:27:58;16.20;58.00
13521;DHT22;6832;51.186;3.236;2023-04-25T02:30:26;16.20;58.00
13521;DHT22;6832;51.186;3.236;2023-04-25T02:32:53;16.20;58.00
13521;DHT22;6832;51.186;3.236;2023-04-25T02:35:20;16.10;57.90
13521;DHT22;6832;51.186;3.236;2023-04-25T02:37:47;16.10;57.90
13521;DHT22;6832;51.186;3.236;2023-04-25T02:40:18;16.10;57.90
13521;DHT22;6832;51.186;3.236;2023-04-25T02:42:45;16.10;58.50
13521;DHT22;6832;51.186;3.236;2023-04-25T02:45:12;16.10;57.90
13521;DHT22;6832;51.186;3.236;2023-04-25T02:47:40;16.10;57.90
13521;DHT22;6832;51.186;3.236;2023-04-25T02:50:10;16.10;57.90
13521;DHT22;6832;51.186;3.236;2023-04-25T02:52:37;16.20;58.00
13521;DHT22;6832;51.186;3.236;2023-04-25T02:55:05;16.00;57.80
13521;DHT22;6832;51.186;3.236;2023-04-25T02:57:32;16.10;57.90
13521;DHT22;6832;51.186;3.236;2023-04-25T03:00:00;16.00;57.80
13521;DHT22;6832;51.186;3.236;2023-04-25T03:02:27;16.10;57.90
13521;DHT22;6832;51.186;3.236;2023-04-25T03:04:56;16.00;57.80
13521;DHT22;6832;51.186;3.236;2023-04-25T03:07:23;16.10;57.90
13521;DHT22;6832;51.186;3.236;2023-04-25T03:09:50;16.00;57.80
13521;DHT22;6832;51.186;3.236;2023-04-25T03:12:18;16.00;57.80
13521;DHT22;6832;51.186;3.236;2023-04-25T03:14:45;16.00;57.80
13521;DHT22;6832;51.186;3.236;2023-04-25T03:17:12;16.00;57.80
13521;DHT22;6832;51.186;3.236;2023-04-25T03:19:39;16.00;57.90
13521;DHT22;6832;51.186;3.236;2023-04-25T03:22:07;16.00;57.80
13521;DHT22;6832;51.186;3.236;2023-04-25T03:24:34;15.90;57.80
13521;DHT22;6832;51.186;3.236;2023-04-25T03:27:02;16.00;57.80
13521;DHT22;6832;51.186;3.236;2023-04-25T03:29:29;15.90;57.80
13521;DHT22;6832;51.186;3.236;2023-04-25T03:31:56;15.90;57.80
13521;DHT22;6832;51.186;3.236;2023-04-25T03:34:23;15.90;57.80
13521;DHT22;6832;51.186;3.236;2023-04-25T03:36:51;15.90;57.80
13521;DHT22;6832;51.186;3.236;2023-04-25T03:39:20;15.90;57.80
13521;DHT22;6832;51.186;3.236;2023-04-25T03:41:47;15.90;57.80
13521;DHT22;6832;51.186;3.236;2023-04-25T03:44:14;15.90;57.80
13521;DHT22;6832;51.186;3.236;2023-04-25T03:46:41;15.80;57.70
13521;DHT22;6832;51.186;3.236;2023-04-25T03:49:08;15.90;57.80
13521;DHT22;6832;51.186;3.236;2023-04-25T03:51:35;15.80;57.70
13521;DHT22;6832;51.186;3.236;2023-04-25T03:54:02;15.80;57.70
13521;DHT22;6832;51.186;3.236;2023-04-25T03:56:30;15.80;57.70
13521;DHT22;6832;51.186;3.236;2023-04-25T03:58:57;15.80;57.70
13521;DHT22;6832;51.186;3.236;2023-04-25T04:01:24;15.80;57.70
13521;DHT22;6832;51.186;3.236;2023-04-25T04:03:51;15.70;58.20
13521;DHT22;6832;51.186;3.236;2023-04-25T04:06:18;15.70;57.70
13521;DHT22;6832;51.186;3.236;2023-04-25T04:08:46;15.70;57.70
13521;DHT22;6832;51.186;3.236;2023-04-25T04:11:13;15.70;57.70
13521;DHT22;6832;51.186;3.236;2023-04-25T04:13:42;15.70;57.60
13521;DHT22;6832;51.186;3.236;2023-04-25T04:16:09;15.70;57.70
13521;DHT22;6832;51.186;3.236;2023-04-25T04:18:36;15.70;57.70
13521;DHT22;6832;51.186;3.236;2023-04-25T04:21:03;15.70;57.70
13521;DHT22;6832;51.186;3.236;2023-04-25T04:23:30;15.70;57.70
13521;DHT22;6832;51.186;3.236;2023-04-25T04:25:57;15.70;57.70
13521;DHT22;6832;51.186;3.236;2023-04-25T04:28:24;15.70;57.70
13521;DHT22;6832;51.186;3.236;2023-04-25T04:30:53;15.70;57.70
13521;DHT22;6832;51.186;3.236;2023-04-25T04:33:21;15.60;57.60
13521;DHT22;6832;51.186;3.236;2023-04-25T04:35:50;15.70;57.70
13521;DHT22;6832;51.186;3.236;2023-04-25T04:38:17;15.60;57.60
13521;DHT22;6832;51.186;3.236;2023-04-25T04:40:45;15.60;57.60
13521;DHT22;6832;51.186;3.236;2023-04-25T04:43:13;15.60;57.60
13521;DHT22;6832;51.186;3.236;2023-04-25T04:45:42;15.60;57.60
13521;DHT22;6832;51.186;3.236;2023-04-25T04:48:17;15.60;57.60
13521;DHT22;6832;51.186;3.236;2023-04-25T04:50:47;15.60;57.60
13521;DHT22;6832;51.186;3.236;2023-04-25T04:53:14;15.60;57.60
13521;DHT22;6832;51.186;3.236;2023-04-25T04:55:41;15.60;57.60
13521;DHT22;6832;51.186;3.236;2023-04-25T04:58:10;15.60;57.70
13521;DHT22;6832;51.186;3.236;2023-04-25T05:00:38;15.60;57.60
13521;DHT22;6832;51.186;3.236;2023-04-25T05:03:05;15.50;57.60
13521;DHT22;6832;51.186;3.236;2023-04-25T05:05:34;15.50;57.60
13521;DHT22;6832;51.186;3.236;2023-04-25T05:08:12;15.50;57.70
13521;DHT22;6832;51.186;3.236;2023-04-25T05:10:39;15.60;57.70
13521;DHT22;6832;51.186;3.236;2023-04-25T05:13:07;15.50;57.60
13521;DHT22;6832;51.186;3.236;2023-04-25T05:15:34;15.50;57.60
13521;DHT22;6832;51.186;3.236;2023-04-25T05:18:02;15.50;57.60
13521;DHT22;6832;51.186;3.236;2023-04-25T05:20:29;15.50;57.60
13521;DHT22;6832;51.186;3.236;2023-04-25T05:22:57;15.50;57.60
13521;DHT22;6832;51.186;3.236;2023-04-25T05:25:24;15.50;57.60
13521;DHT22;6832;51.186;3.236;2023-04-25T05:27:54;15.50;57.60
13521;DHT22;6832;51.186;3.236;2023-04-25T05:30:22;15.40;57.50
13521;DHT22;6832;51.186;3.236;2023-04-25T05:32:49;15.50;57.60
13521;DHT22;6832;51.186;3.236;2023-04-25T05:35:16;15.40;57.50
13521;DHT22;6832;51.186;3.236;2023-04-25T05:37:43;15.40;57.50
13521;DHT22;6832;51.186;3.236;2023-04-25T05:40:13;15.40;57.50
13521;DHT22;6832;51.186;3.236;2023-04-25T05:42:40;15.40;57.50
13521;DHT22;6832;51.186;3.236;2023-04-25T05:45:08;15.30;57.50
13521;DHT22;6832;51.186;3.236;2023-04-25T05:47:35;15.40;57.50
13521;DHT22;6832;51.186;3.236;2023-04-25T05:50:09;15.40;57.50
13521;DHT22;6832;51.186;3.236;2023-04-25T05:52:37;15.40;57.50
13521;DHT22;6832;51.186;3.236;2023-04-25T05:55:12;15.40;57.50
13521;DHT22;6832;51.186;3.236;2023-04-25T05:57:41;15.30;57.50
13521;DHT22;6832;51.186;3.236;2023-04-25T06:00:12;15.30;57.50
13521;DHT22;6832;51.186;3.236;2023-04-25T06:02:41;15.30;57.50
13521;DHT22;6832;51.186;3.236;2023-04-25T06:05:08;15.30;57.50
13521;DHT22;6832;51.186;3.236;2023-04-25T06:07:35;15.30;57.50
13521;DHT22;6832;51.186;3.236;2023-04-25T06:10:02;15.30;57.50
13521;DHT22;6832;51.186;3.236;2023-04-25T06:12:33;15.30;57.50
13521;DHT22;6832;51.186;3.236;2023-04-25T06:15:00;15.30;57.50
13521;DHT22;6832;51.186;3.236;2023-04-25T06:17:27;15.30;57.60
13521;DHT22;6832;51.186;3.236;2023-04-25T06:19:54;15.30;57.60
13521;DHT22;6832;51.186;3.236;2023-04-25T06:22:21;15.30;57.60
13521;DHT22;6832;51.186;3.236;2023-04-25T06:24:48;15.30;58.20
13521;DHT22;6832;51.186;3.236;2023-04-25T06:27:15;15.30;57.60
13521;DHT22;6832;51.186;3.236;2023-04-25T06:29:46;15.30;57.60
13521;DHT22;6832;51.186;3.236;2023-04-25T06:32:13;15.30;57.60
13521;DHT22;6832;51.186;3.236;2023-04-25T06:34:40;15.20;57.60
13521;DHT22;6832;51.186;3.236;2023-04-25T06:37:08;15.20;57.60
13521;DHT22;6832;51.186;3.236;2023-04-25T06:39:35;15.20;57.60
13521;DHT22;6832;51.186;3.236;2023-04-25T06:42:02;15.30;57.70
13521;DHT22;6832;51.186;3.236;2023-04-25T06:44:29;15.20;57.60
13521;DHT22;6832;51.186;3.236;2023-04-25T06:46:57;15.30;57.70
13521;DHT22;6832;51.186;3.236;2023-04-25T06:49:24;15.30;57.70
13521;DHT22;6832;51.186;3.236;2023-04-25T06:51:51;15.30;57.70
13521;DHT22;6832;51.186;3.236;2023-04-25T06:54:18;15.30;57.70
13521;DHT22;6832;51.186;3.236;2023-04-25T06:56:46;15.20;57.70
13521;DHT22;6832;51.186;3.236;2023-04-25T06:59:13;15.20;57.60
13521;DHT22;6832;51.186;3.236;2023-04-25T07:01:40;15.20;57.70
13521;DHT22;6832;51.186;3.236;2023-04-25T07:04:08;15.20;57.70
13521;DHT22;6832;51.186;3.236;2023-04-25T07:06:35;15.20;57.70
13521;DHT22;6832;51.186;3.236;2023-04-25T07:09:03;15.30;57.80
13521;DHT22;6832;51.186;3.236;2023-04-25T07:11:31;15.20;57.70
13521;DHT22;6832;51.186;3.236;2023-04-25T07:13:58;15.30;57.70
13521;DHT22;6832;51.186;3.236;2023-04-25T07:16:25;15.20;57.70
13521;DHT22;6832;51.186;3.236;2023-04-25T07:18:52;15.20;57.70
13521;DHT22;6832;51.186;3.236;2023-04-25T07:21:21;15.20;57.70
13521;DHT22;6832;51.186;3.236;2023-04-25T07:23:48;15.20;57.70
13521;DHT22;6832;51.186;3.236;2023-04-25T07:26:15;15.30;57.80
13521;DHT22;6832;51.186;3.236;2023-04-25T07:28:42;15.30;57.80
13521;DHT22;6832;51.186;3.236;2023-04-25T07:31:09;15.30;57.70
13521;DHT22;6832;51.186;3.236;2023-04-25T07:33:38;15.30;57.80
13521;DHT22;6832;51.186;3.236;2023-04-25T07:36:06;15.30;57.80
13521;DHT22;6832;51.186;3.236;2023-04-25T07:38:35;15.30;57.80
13521;DHT22;6832;51.186;3.236;2023-04-25T07:41:02;15.30;57.80
13521;DHT22;6832;51.186;3.236;2023-04-25T07:43:29;15.30;57.80
13521;DHT22;6832;51.186;3.236;2023-04-25T07:45:56;15.30;57.80
13521;DHT22;6832;51.186;3.236;2023-04-25T07:48:23;15.30;57.80
13521;DHT22;6832;51.186;3.236;2023-04-25T07:50:50;15.30;57.80
13521;DHT22;6832;51.186;3.236;2023-04-25T07:53:17;15.30;57.80
13521;DHT22;6832;51.186;3.236;2023-04-25T07:55:46;15.30;57.80
13521;DHT22;6832;51.186;3.236;2023-04-25T07:58:13;15.40;57.90
13521;DHT22;6832;51.186;3.236;2023-04-25T08:00:42;15.30;57.80
13521;DHT22;6832;51.186;3.236;2023-04-25T08:03:09;15.30;57.80
13521;DHT22;6832;51.186;3.236;2023-04-25T08:05:37;15.30;57.80
13521;DHT22;6832;51.186;3.236;2023-04-25T08:08:04;15.30;57.80
13521;DHT22;6832;51.186;3.236;2023-04-25T08:10:32;15.40;57.90
13521;DHT22;6832;51.186;3.236;2023-04-25T08:13:00;15.30;57.80
13521;DHT22;6832;51.186;3.236;2023-04-25T08:15:28;15.40;57.90
13521;DHT22;6832;51.186;3.236;2023-04-25T08:17:55;15.40;57.90
13521;DHT22;6832;51.186;3.236;2023-04-25T08:20:23;15.40;57.90
13521;DHT22;6832;51.186;3.236;2023-04-25T08:22:51;15.40;57.90
13521;DHT22;6832;51.186;3.236;2023-04-25T08:25:18;15.40;57.90
13521;DHT22;6832;51.186;3.236;2023-04-25T08:27:45;15.40;57.90
13521;DHT22;6832;51.186;3.236;2023-04-25T08:30:15;15.40;57.90
13521;DHT22;6832;51.186;3.236;2023-04-25T08:32:43;15.40;57.90
13521;DHT22;6832;51.186;3.236;2023-04-25T08:35:10;15.40;57.90
13521;DHT22;6832;51.186;3.236;2023-04-25T08:37:37;15.40;57.90
13521;DHT22;6832;51.186;3.236;2023-04-25T08:40:05;15.40;57.90
13521;DHT22;6832;51.186;3.236;2023-04-25T08:42:37;15.50;58.00
13521;DHT22;6832;51.186;3.236;2023-04-25T08:45:08;15.50;58.00
13521;DHT22;6832;51.186;3.236;2023-04-25T08:47:38;15.50;58.00
13521;DHT22;6832;51.186;3.236;2023-04-25T08:50:06;15.50;58.00
13521;DHT22;6832;51.186;3.236;2023-04-25T08:52:36;15.50;58.00
13521;DHT22;6832;51.186;3.236;2023-04-25T08:55:07;15.50;58.00
13521;DHT22;6832;51.186;3.236;2023-04-25T08:57:37;15.50;58.00
13521;DHT22;6832;51.186;3.236;2023-04-25T09:00:05;15.50;58.00
13521;DHT22;6832;51.186;3.236;2023-04-25T09:02:37;15.60;58.20
13521;DHT22;6832;51.186;3.236;2023-04-25T09:05:06;15.60;58.10
13521;DHT22;6832;51.186;3.236;2023-04-25T09:07:35;15.60;58.10
13521;DHT22;6832;51.186;3.236;2023-04-25T09:10:02;15.60;58.20
13521;DHT22;6832;51.186;3.236;2023-04-25T09:12:30;15.60;58.10
13521;DHT22;6832;51.186;3.236;2023-04-25T09:15:08;15.70;58.20
13521;DHT22;6832;51.186;3.236;2023-04-25T09:17:41;15.70;58.30
13521;DHT22;6832;51.186;3.236;2023-04-25T09:20:12;15.70;58.30
13521;DHT22;6832;51.186;3.236;2023-04-25T09:22:40;15.70;58.30
13521;DHT22;6832;51.186;3.236;2023-04-25T09:25:09;15.80;58.30
13521;DHT22;6832;51.186;3.236;2023-04-25T09:27:49;15.80;58.30
13521;DHT22;6832;51.186;3.236;2023-04-25T09:30:16;15.80;58.40
13521;DHT22;6832;51.186;3.236;2023-04-25T09:32:45;15.80;58.30
13521;DHT22;6832;51.186;3.236;2023-04-25T09:35:23;15.90;58.40
13521;DHT22;6832;51.186;3.236;2023-04-25T09:37:51;15.90;58.40
13521;DHT22;6832;51.186;3.236;2023-04-25T09:40:18;15.90;58.40
13521;DHT22;6832;51.186;3.236;2023-04-25T09:42:45;15.90;58.00
13521;DHT22;6832;51.186;3.236;2023-04-25T09:45:13;16.00;57.00
13521;DHT22;6832;51.186;3.236;2023-04-25T09:47:40;16.00;56.60
13521;DHT22;6832;51.186;3.236;2023-04-25T09:50:18;16.00;56.80
13521;DHT22;6832;51.186;3.236;2023-04-25T09:52:45;16.00;57.00
13521;DHT22;6832;51.186;3.236;2023-04-25T09:55:30;16.00;56.80
13521;DHT22;6832;51.186;3.236;2023-04-25T09:58:03;16.00;56.80
13521;DHT22;6832;51.186;3.236;2023-04-25T10:00:32;16.00;57.10
13521;DHT22;6832;51.186;3.236;2023-04-25T10:03:01;16.00;57.30
13521;DHT22;6832;51.186;3.236;2023-04-25T10:05:35;16.00;57.40
13521;DHT22;6832;51.186;3.236;2023-04-25T10:08:05;16.00;57.50
13521;DHT22;6832;51.186;3.236;2023-04-25T10:10:34;16.00;57.60
13521;DHT22;6832;51.186;3.236;2023-04-25T10:13:05;16.00;57.60
13521;DHT22;6832;51.186;3.236;2023-04-25T10:15:34;16.00;57.60
13521;DHT22;6832;51.186;3.236;2023-04-25T10:18:02;16.00;57.60
13521;DHT22;6832;51.186;3.236;2023-04-25T10:20:31;16.10;57.80
13521;DHT22;6832;51.186;3.236;2023-04-25T10:23:06;16.10;57.90
13521;DHT22;6832;51.186;3.236;2023-04-25T10:25:34;16.10;57.90
13521;DHT22;6832;51.186;3.236;2023-04-25T10:28:03;16.20;58.00
13521;DHT22;6832;51.186;3.236;2023-04-25T10:30:30;16.10;57.90
13521;DHT22;6832;51.186;3.236;2023-04-25T10:32:59;16.20;58.00
13521;DHT22;6832;51.186;3.236;2023-04-25T10:35:28;16.20;58.00
13521;DHT22;6832;51.186;3.236;2023-04-25T10:38:03;16.20;58.00
13521;DHT22;6832;51.186;3.236;2023-04-25T10:40:30;16.30;57.30
13521;DHT22;6832;51.186;3.236;2023-04-25T10:43:33;16.30;57.50
13521;DHT22;6832;51.186;3.236;2023-04-25T10:46:02;16.30;57.60
13521;DHT22;6832;51.186;3.236;2023-04-25T10:48:30;16.30;57.80
13521;DHT22;6832;51.186;3.236;2023-04-25T10:51:22;16.40;57.90
13521;DHT22;6832;51.186;3.236;2023-04-25T10:54:00;16.40;58.00
13521;DHT22;6832;51.186;3.236;2023-04-25T10:56:28;16.40;58.00
13521;DHT22;6832;51.186;3.236;2023-04-25T10:59:06;16.40;58.00
13521;DHT22;6832;51.186;3.236;2023-04-25T11:01:38;16.50;58.00
13521;DHT22;6832;51.186;3.236;2023-04-25T11:04:05;16.50;58.00
13521;DHT22;6832;51.186;3.236;2023-04-25T11:06:42;16.50;58.00
13521;DHT22;6832;51.186;3.236;2023-04-25T11:09:15;16.50;58.10
13521;DHT22;6832;51.186;3.236;2023-04-25T11:11:42;16.60;58.20
13521;DHT22;6832;51.186;3.236;2023-04-25T11:14:10;16.60;58.10
13521;DHT22;6832;51.186;3.236;2023-04-25T11:16:37;16.70;58.20
13521;DHT22;6832;51.186;3.236;2023-04-25T11:19:04;16.70;58.20
13521;DHT22;6832;51.186;3.236;2023-04-25T11:21:31;16.70;58.20
13521;DHT22;6832;51.186;3.236;2023-04-25T11:23:59;16.80;58.30
13521;DHT22;6832;51.186;3.236;2023-04-25T11:26:33;16.80;58.20
13521;DHT22;6832;51.186;3.236;2023-04-25T11:29:00;16.80;58.20
13521;DHT22;6832;51.186;3.236;2023-04-25T11:31:27;16.80;58.10
13521;DHT22;6832;51.186;3.236;2023-04-25T11:33:57;16.90;58.20
13521;DHT22;6832;51.186;3.236;2023-04-25T11:36:24;16.90;58.20
13521;DHT22;6832;51.186;3.236;2023-04-25T11:38:52;16.90;58.10
13521;DHT22;6832;51.186;3.236;2023-04-25T11:41:20;17.00;58.20
13521;DHT22;6832;51.186;3.236;2023-04-25T11:43:49;17.00;58.20
13521;DHT22;6832;51.186;3.236;2023-04-25T11:46:17;17.00;58.10
13521;DHT22;6832;51.186;3.236;2023-04-25T11:48:45;17.00;58.10
13521;DHT22;6832;51.186;3.236;2023-04-25T11:51:13;17.00;58.10
13521;DHT22;6832;51.186;3.236;2023-04-25T11:53:41;17.10;58.80
13521;DHT22;6832;51.186;3.236;2023-04-25T11:56:09;17.00;58.10
13521;DHT22;6832;51.186;3.236;2023-04-25T11:58:57;17.10;58.10
13521;DHT22;6832;51.186;3.236;2023-04-25T12:01:28;17.10;58.10
13521;DHT22;6832;51.186;3.236;2023-04-25T12:03:56;17.10;58.10
13521;DHT22;6832;51.186;3.236;2023-04-25T12:06:26;17.20;58.10
13521;DHT22;6832;51.186;3.236;2023-04-25T12:09:04;17.20;58.10
13521;DHT22;6832;51.186;3.236;2023-04-25T12:11:31;17.20;58.10
13521;DHT22;6832;51.186;3.236;2023-04-25T12:14:03;17.20;58.10
13521;DHT22;6832;51.186;3.236;2023-04-25T12:16:40;17.20;58.00
13521;DHT22;6832;51.186;3.236;2023-04-25T12:19:08;17.20;58.00
13521;DHT22;6832;51.186;3.236;2023-04-25T12:21:35;17.30;58.10
13521;DHT22;6832;51.186;3.236;2023-04-25T12:24:10;17.20;58.00
13521;DHT22;6832;51.186;3.236;2023-04-25T12:26:49;17.30;58.00
13521;DHT22;6832;51.186;3.236;2023-04-25T12:29:20;17.30;58.00
13521;DHT22;6832;51.186;3.236;2023-04-25T12:31:47;17.30;58.00
13521;DHT22;6832;51.186;3.236;2023-04-25T12:34:14;17.30;58.00
13521;DHT22;6832;51.186;3.236;2023-04-25T12:36:42;17.30;58.00
13521;DHT22;6832;51.186;3.236;2023-04-25T12:39:14;17.30;58.00
13521;DHT22;6832;51.186;3.236;2023-04-25T12:41:41;17.30;58.00
13521;DHT22;6832;51.186;3.236;2023-04-25T12:44:08;17.40;58.00
13521;DHT22;6832;51.186;3.236;2023-04-25T12:46:37;17.40;58.10
13521;DHT22;6832;51.186;3.236;2023-04-25T12:49:04;17.40;58.00
13521;DHT22;6832;51.186;3.236;2023-04-25T12:51:33;17.40;58.00
13521;DHT22;6832;51.186;3.236;2023-04-25T12:54:08;17.40;58.00
13521;DHT22;6832;51.186;3.236;2023-04-25T12:56:35;17.40;58.00
13521;DHT22;6832;51.186;3.236;2023-04-25T12:59:02;17.40;58.60
13521;DHT22;6832;51.186;3.236;2023-04-25T13:01:30;17.40;58.00
13521;DHT22;6832;51.186;3.236;2023-04-25T13:03:59;17.40;58.00
13521;DHT22;6832;51.186;3.236;2023-04-25T13:06:26;17.40;58.00
13521;DHT22;6832;51.186;3.236;2023-04-25T13:08:55;17.40;58.60
13521;DHT22;6832;51.186;3.236;2023-04-25T13:11:22;17.40;58.00
13521;DHT22;6832;51.186;3.236;2023-04-25T13:13:49;17.40;58.00
13521;DHT22;6832;51.186;3.236;2023-04-25T13:16:16;17.40;57.90
13521;DHT22;6832;51.186;3.236;2023-04-25T13:18:46;17.40;57.90
13521;DHT22;6832;51.186;3.236;2023-04-25T13:21:14;17.50;58.00
13521;DHT22;6832;51.186;3.236;2023-04-25T13:23:41;17.50;58.00
13521;DHT22;6832;51.186;3.236;2023-04-25T13:26:10;17.50;58.00
13521;DHT22;6832;51.186;3.236;2023-04-25T13:28:37;17.50;58.00
13521;DHT22;6832;51.186;3.236;2023-04-25T13:31:07;17.50;58.00
13521;DHT22;6832;51.186;3.236;2023-04-25T13:33:34;17.50;58.00
13521;DHT22;6832;51.186;3.236;2023-04-25T13:36:01;17.50;58.00
13521;DHT22;6832;51.186;3.236;2023-04-25T13:38:29;17.60;58.10
13521;DHT22;6832;51.186;3.236;2023-04-25T13:40:56;17.50;58.00
13521;DHT22;6832;51.186;3.236;2023-04-25T13:43:23;17.50;58.00
13521;DHT22;6832;51.186;3.236;2023-04-25T13:45:53;17.50;58.00
13521;DHT22;6832;51.186;3.236;2023-04-25T13:48:20;17.50;58.00
13521;DHT22;6832;51.186;3.236;2023-04-25T13:50:48;17.50;58.00
13521;DHT22;6832;51.186;3.236;2023-04-25T13:53:15;17.50;58.00
13521;DHT22;6832;51.186;3.236;2023-04-25T13:55:43;17.50;58.00
13521;DHT22;6832;51.186;3.236;2023-04-25T13:58:11;17.50;57.50
13521;DHT22;6832;51.186;3.236;2023-04-25T14:00:39;17.50;57.40
13521;DHT22;6832;51.186;3.236;2023-04-25T14:03:08;17.60;57.70
13521;DHT22;6832;51.186;3.236;2023-04-25T14:05:37;17.60;57.70
13521;DHT22;6832;51.186;3.236;2023-04-25T14:08:11;17.60;57.60
13521;DHT22;6832;51.186;3.236;2023-04-25T14:10:38;17.60;57.70
13521;DHT22;6832;51.186;3.236;2023-04-25T14:13:07;17.60;57.90
13521;DHT22;6832;51.186;3.236;2023-04-25T14:15:35;17.60;58.00
13521;DHT22;6832;51.186;3.236;2023-04-25T14:18:03;17.60;58.00
13521;DHT22;6832;51.186;3.236;2023-04-25T14:20:34;17.70;58.10
13521;DHT22;6832;51.186;3.236;2023-04-25T14:23:05;17.70;58.20
13521;DHT22;6832;51.186;3.236;2023-04-25T14:25:33;17.70;58.20
13521;DHT22;6832;51.186;3.236;2023-04-25T14:28:02;17.70;58.20
13521;DHT22;6832;51.186;3.236;2023-04-25T14:30:43;17.70;58.30
13521;DHT22;6832;51.186;3.236;2023-04-25T14:33:11;17.80;58.40
13521;DHT22;6832;51.186;3.236;2023-04-25T14:35:39;17.80;58.40
13521;DHT22;6832;51.186;3.236;2023-04-25T14:38:07;17.90;58.60
13521;DHT22;6832;51.186;3.236;2023-04-25T14:40:34;17.90;58.60
13521;DHT22;6832;51.186;3.236;2023-04-25T14:43:02;17.90;58.60
13521;DHT22;6832;51.186;3.236;2023-04-25T14:45:29;18.00;58.70
13521;DHT22;6832;51.186;3.236;2023-04-25T14:47:58;18.00;58.70
13521;DHT22;6832;51.186;3.236;2023-04-25T14:50:25;18.00;58.80
13521;DHT22;6832;51.186;3.236;2023-04-25T14:52:52;18.10;58.80
13521;DHT22;6832;51.186;3.236;2023-04-25T14:55:25;18.10;58.80
13521;DHT22;6832;51.186;3.236;2023-04-25T14:57:53;18.20;58.90
13521;DHT22;6832;51.186;3.236;2023-04-25T15:00:21;18.20;58.90
13521;DHT22;6832;51.186;3.236;2023-04-25T15:02:48;18.20;58.90
13521;DHT22;6832;51.186;3.236;2023-04-25T15:05:17;18.20;58.90
13521;DHT22;6832;51.186;3.236;2023-04-25T15:07:45;18.30;59.00
13521;DHT22;6832;51.186;3.236;2023-04-25T15:10:13;18.40;59.00
13521;DHT22;6832;51.186;3.236;2023-04-25T15:12:41;18.40;59.00
13521;DHT22;6832;51.186;3.236;2023-04-25T15:15:09;18.40;59.50
13521;DHT22;6832;51.186;3.236;2023-04-25T15:17:37;18.50;59.40
13521;DHT22;6832;51.186;3.236;2023-04-25T15:20:05;18.50;59.30
13521;DHT22;6832;51.186;3.236;2023-04-25T15:22:43;18.60;59.20
13521;DHT22;6832;51.186;3.236;2023-04-25T15:25:16;18.70;59.30
13521;DHT22;6832;51.186;3.236;2023-04-25T15:27:44;18.70;59.20
13521;DHT22;6832;51.186;3.236;2023-04-25T15:30:32;18.80;59.10
13521;DHT22;6832;51.186;3.236;2023-04-25T15:33:13;18.80;59.10
13521;DHT22;6832;51.186;3.236;2023-04-25T15:35:50;18.90;59.70
13521;DHT22;6832;51.186;3.236;2023-04-25T15:38:22;18.80;59.00
13521;DHT22;6832;51.186;3.236;2023-04-25T15:40:55;19.00;59.20
13521;DHT22;6832;51.186;3.236;2023-04-25T15:43:22;19.00;59.20
13521;DHT22;6832;51.186;3.236;2023-04-25T15:46:09;19.00;59.20
13521;DHT22;6832;51.186;3.236;2023-04-25T15:49:09;19.00;59.20
13521;DHT22;6832;51.186;3.236;2023-04-25T15:51:52;19.10;59.30
13521;DHT22;6832;51.186;3.236;2023-04-25T15:54:35;19.10;59.20
13521;DHT22;6832;51.186;3.236;2023-04-25T15:57:03;19.10;59.60